Aeroporto :
LOGIN :

Iscrizione | Disclaimer

   EN    FR    IT 

 










Sommario :    VFR   VFR Marginale   IFR   IFR Intensivo   IFR Molto Intensivo
Visibilità : 
Base nubi : 
>= 8 km
>= 3000ft
5 / 8 km
1000 / 3000 ft
1500m / 5 km
500 / 1000 ft
800 / 1500m
200 / 500 ft
< 800m
< 200 ft
Simboli :   Temporali  Nebbia  Neve Forte  Precipitazioni Forti  Vento > 20 kt
SIGMETs :   Varie  Temporali  Ghiacco  Turbolenza  Onda orograficha  Ceneri Vulcaniche






- Altitudine del aeroporto : 410 ft
- Codice IATA : AVB


LIPA - Aviano AB Pordenone

ULTIMO METAR :
  • 210955Z 20005KT CAVOK 05/M02 Q1042 RMK SKC VIS MIN 9999 WIND THR05 /////KT WIND THR23 /////KT A3078 BLU

METARs OBSOLETI :
  • 210855Z 17003KT CAVOK 03/M03 Q1041 RMK SKC VIS MIN 9999 WIND THR05 /////KT WIND THR23 /////KT A3076 BLU
  • 210755Z 03002KT CAVOK M01/M02 Q1041 RMK SKC VIS MIN 9999 WIND THR05 /////KT WIND THR23 /////KT A3077 BLU

TAF TAF LIPA
Valido dal 21 a 09 ore il 21 a 18 ore UTC


210800Z 2109/2118 02003KT CAVOK



MetMap, La meteo Aeronautica in un colpo d'occhio ! - Copyright ORBIFLY Dicembre 2007 - Disclaimer

ORBIFLY MET'MAP TEAM :

Programmazione e sviluppo : Alexandra Zaïnal
Concezione : Baudouin d'Aumeries
Aiuto per la programmazione : Marc-Olivier Méhu
Supporto tecnico e logistico : Manuel Goepfert
Aiuto per la traduzione : Arnaldo La Scala

Contatto : metmap@orbifly.com




FONTI E CREDITI :

   NOAA